Saint Charles, Michigan
Current Conditions -  °F | °C
As of 7:53 PM on Tuesday 21 Oct 2014 (Local Time) from KMBS Reporting Station
Clear Clear  
Wind Chill: 41°   Ceiling: Unl
Heat Index: 45°   Visibility: 10mi
Dew Point: 36°   Wind: 8mph
Humidity: 71%   Direction: 60°ENE
Pressure: 30.22"   Gusts: NA
Location:  43.3°N, 84.14°W
Report Text: KMBS 212353Z 06007KT 10SM CLR 07/02 A3022 RMK AO2 SLP238 60000 T00720022 10100 20072 53020
Loading
Personal Weather Stations






























Interactive Weather Map New forecast layout! Learn more

10-Day Weather Forecast

Advertisements
Track Severe Weather on mobile